Terminal Aerodrome Forecast
Issued by NWS

Home | Current Version | Previous Version | Text Only | Print | Product List | Glossary On
Versions: 1 2 3 4 5 6 7 8 9 10 11 12 13
000
FTUS45 KABQ 222330
TAFAEG
TAF
KAEG 222330Z 2300/2324 24020G30KT P6SM SCT080 BKN140
     FM230200 20012KT P6SM BKN100
     FM231400 23015G25KT P6SM SCT070
     FM231700 26028G38KT P6SM FEW070
     FM232100 29025G35KT P6SM SKC=

USA.gov is the U.S. government's official web portal to all federal, state and local government web resources and services.